Time;durP1;ratioP1;P1;durP2;ratioP2;P2;SDS_P1;SDS_P2;PMS_P1;PMS_P2;Temp;Humidity;BMP_temperature;BMP_pressure;BME280_temperature;BME280_humidity;BME280_pressure;Samples;Min_cycle;Max_cycle;Signal;HPM_P1;HPM_P2
2022/02/26 00:01:43;;;;;;;10.53;2.23;;;2.10;99.90;;;;;;4994524;28;20246;-77
2022/02/26 00:04:11;;;;;;;10.37;2.20;;;2.10;99.90;;;;;;4994460;28;20198;-76
2022/02/26 00:06:38;;;;;;;10.67;2.43;;;2.00;99.90;;;;;;4994235;28;20202;-76
2022/02/26 00:09:06;;;;;;;6.03;2.80;;;2.00;99.90;;;;;;4993631;28;20560;-78
2022/02/26 00:11:35;;;;;;;7.60;2.33;;;2.10;99.90;;;;;;4976367;28;20203;-77
2022/02/26 00:14:02;;;;;;;4.67;2.20;;;2.10;99.90;;;;;;4993719;28;20280;-77
2022/02/26 00:16:29;;;;;;;7.53;2.33;;;2.10;99.90;;;;;;4994130;28;20208;-77
2022/02/26 00:18:55;;;;;;;6.77;2.10;;;2.10;99.90;;;;;;4994153;28;20213;-78
2022/02/26 00:21:23;;;;;;;7.23;2.70;;;2.00;99.90;;;;;;4993438;28;20234;-77
2022/02/26 00:23:49;;;;;;;7.03;2.30;;;2.00;99.90;;;;;;4993768;28;20256;-78
2022/02/26 00:26:20;;;;;;;5.83;2.20;;;2.00;99.90;;;;;;4993520;28;20199;-77
2022/02/26 00:28:49;;;;;;;5.83;2.40;;;2.00;99.90;;;;;;4993940;28;20272;-77
2022/02/26 00:31:16;;;;;;;5.93;2.53;;;2.00;99.90;;;;;;4993899;28;20207;-78
2022/02/26 00:33:43;;;;;;;5.10;2.07;;;1.90;99.90;;;;;;4994141;28;20574;-77
2022/02/26 00:36:10;;;;;;;5.70;1.80;;;1.90;99.90;;;;;;4993427;28;20585;-78
2022/02/26 00:38:37;;;;;;;11.00;2.63;;;1.80;99.90;;;;;;4993094;28;20206;-78
2022/02/26 00:41:04;;;;;;;6.87;2.63;;;1.80;99.90;;;;;;4993122;28;20296;-76
2022/02/26 00:43:31;;;;;;;8.77;2.40;;;1.80;99.90;;;;;;4992564;28;20230;-76
2022/02/26 00:45:59;;;;;;;8.77;2.27;;;1.70;99.90;;;;;;4989329;28;20198;-78
2022/02/26 00:51:07;;;;;;;7.73;1.93;;;1.80;99.90;;;;;;4980629;28;20199;-78
2022/02/26 00:53:34;;;;;;;7.03;2.17;;;1.60;99.90;;;;;;4987546;28;20258;-78
2022/02/26 00:56:00;;;;;;;5.13;2.30;;;1.60;99.90;;;;;;4999643;28;20205;-78
2022/02/26 00:58:27;;;;;;;7.03;2.43;;;1.70;99.90;;;;;;4998098;28;20530;-78
2022/02/26 01:00:54;;;;;;;8.30;2.27;;;1.70;99.90;;;;;;4996099;28;20240;-78
2022/02/26 01:03:22;;;;;;;8.47;2.17;;;1.80;99.90;;;;;;4993506;28;20229;-78
2022/02/26 01:05:49;;;;;;;13.97;2.77;;;1.70;99.90;;;;;;4985973;28;20808;-78
2022/02/26 01:08:16;;;;;;;8.80;2.70;;;1.70;99.90;;;;;;4983014;28;20198;-78
2022/02/26 01:10:43;;;;;;;11.23;2.67;;;1.60;99.90;;;;;;4982565;28;20206;-77
2022/02/26 01:13:09;;;;;;;9.30;2.70;;;1.60;99.90;;;;;;4981256;28;20223;-77
2022/02/26 01:15:36;;;;;;;5.37;2.00;;;1.50;99.90;;;;;;4983225;28;20203;-78
2022/02/26 01:18:03;;;;;;;6.47;2.30;;;1.60;99.90;;;;;;4982410;28;20201;-78
2022/02/26 01:20:31;;;;;;;6.00;2.07;;;1.60;99.90;;;;;;4984951;28;20745;-79
2022/02/26 01:22:58;;;;;;;5.60;2.30;;;1.50;99.90;;;;;;4982943;28;20226;-78
2022/02/26 01:25:25;;;;;;;6.80;2.57;;;1.40;99.90;;;;;;4976775;28;20651;-78
2022/02/26 01:27:52;;;;;;;12.13;2.67;;;1.40;99.90;;;;;;4973990;28;20207;-78
2022/02/26 01:30:19;;;;;;;6.90;2.70;;;1.50;99.90;;;;;;4973611;28;20213;-79
2022/02/26 01:32:46;;;;;;;5.47;2.87;;;1.50;99.90;;;;;;4973646;28;20724;-78
2022/02/26 01:35:13;;;;;;;6.33;2.17;;;1.50;99.90;;;;;;4973724;28;20217;-79
2022/02/26 01:37:41;;;;;;;5.93;2.93;;;1.40;99.90;;;;;;4975894;28;20218;-78
2022/02/26 01:40:09;;;;;;;4.97;2.00;;;1.40;99.90;;;;;;4992523;28;20212;-78
2022/02/26 01:42:36;;;;;;;5.03;2.07;;;1.40;99.90;;;;;;4993075;28;20238;-78
2022/02/26 01:45:11;;;;;;;10.03;3.17;;;1.30;99.90;;;;;;4993262;28;20210;-78
2022/02/26 01:47:38;;;;;;;6.53;2.10;;;1.40;99.90;;;;;;4992852;28;20202;-79
2022/02/26 01:50:06;;;;;;;5.07;2.20;;;1.40;99.90;;;;;;4992943;28;20211;-79
2022/02/26 01:52:33;;;;;;;4.73;1.97;;;1.60;99.90;;;;;;4992788;28;20227;-79
2022/02/26 01:55:01;;;;;;;7.40;2.53;;;1.60;99.90;;;;;;4994118;28;20213;-79
2022/02/26 01:57:28;;;;;;;7.57;2.07;;;1.50;99.90;;;;;;4995447;28;20202;-79
2022/02/26 01:59:54;;;;;;;8.13;2.30;;;1.30;99.90;;;;;;4996217;28;20225;-78
2022/02/26 02:02:21;;;;;;;10.50;2.03;;;1.30;99.90;;;;;;4995333;28;20244;-79
2022/02/26 02:04:48;;;;;;;7.10;2.67;;;1.30;99.90;;;;;;4995319;28;20683;-79
2022/02/26 02:07:15;;;;;;;4.70;2.20;;;1.40;99.90;;;;;;4995335;28;20213;-79
2022/02/26 02:09:43;;;;;;;3.87;2.20;;;1.40;99.90;;;;;;4995756;28;20211;-78
2022/02/26 02:12:11;;;;;;;8.07;2.63;;;1.40;99.90;;;;;;4995002;28;20589;-79
2022/02/26 02:14:38;;;;;;;6.70;2.53;;;1.30;99.90;;;;;;4995597;28;20210;-79
2022/02/26 02:17:05;;;;;;;7.63;2.77;;;1.40;99.90;;;;;;4995864;28;20207;-79
2022/02/26 02:19:32;;;;;;;7.40;2.57;;;1.40;99.90;;;;;;4995978;28;20206;-79
2022/02/26 02:22:04;;;;;;;11.67;2.80;;;1.40;99.90;;;;;;4995844;28;20234;-78
2022/02/26 02:24:30;;;;;;;6.07;2.60;;;1.50;99.90;;;;;;4996097;28;20207;-79
2022/02/26 02:27:00;;;;;;;9.50;3.00;;;1.40;99.90;;;;;;4995932;28;20576;-79
2022/02/26 02:29:27;;;;;;;8.80;2.47;;;1.50;99.90;;;;;;4995230;28;20273;-79
2022/02/26 02:31:54;;;;;;;5.57;2.57;;;1.50;99.90;;;;;;4995655;28;20687;-79
2022/02/26 02:34:21;;;;;;;7.37;2.77;;;1.50;99.90;;;;;;4995714;28;20203;-78
2022/02/26 02:36:48;;;;;;;6.73;2.90;;;1.40;99.90;;;;;;4995435;28;20214;-78
2022/02/26 02:39:17;;;;;;;8.07;2.40;;;1.30;99.90;;;;;;4995834;28;20285;-78
2022/02/26 02:41:44;;;;;;;7.13;2.40;;;1.20;99.90;;;;;;4995404;28;20589;-78
2022/02/26 02:44:13;;;;;;;8.97;2.77;;;1.10;99.90;;;;;;4996053;28;20207;-80
2022/02/26 02:46:40;;;;;;;6.60;2.03;;;1.10;99.90;;;;;;4994625;28;20203;-79
2022/02/26 02:49:07;;;;;;;9.63;2.60;;;1.10;99.90;;;;;;4995547;28;20206;-79
2022/02/26 02:51:34;;;;;;;9.97;2.40;;;1.10;99.90;;;;;;4995371;28;20218;-79
2022/02/26 02:54:01;;;;;;;5.17;2.60;;;1.10;99.90;;;;;;4995568;28;20252;-79
2022/02/26 02:56:29;;;;;;;6.37;1.83;;;1.10;99.90;;;;;;4995677;28;20761;-80
2022/02/26 02:58:57;;;;;;;7.53;2.30;;;1.20;99.90;;;;;;4995292;28;20213;-79
2022/02/26 03:01:24;;;;;;;6.87;2.30;;;1.20;99.90;;;;;;4994855;28;20249;-79
2022/02/26 03:03:51;;;;;;;5.60;2.10;;;1.20;99.90;;;;;;4995625;28;20227;-79
2022/02/26 03:06:17;;;;;;;3.80;2.10;;;1.10;99.90;;;;;;4994510;28;20222;-79
2022/02/26 03:08:46;;;;;;;6.03;1.83;;;1.10;99.90;;;;;;4995281;28;20211;-79
2022/02/26 03:11:12;;;;;;;11.43;3.23;;;1.00;99.90;;;;;;4995465;28;20607;-79
2022/02/26 03:13:41;;;;;;;3.97;1.93;;;0.90;99.90;;;;;;4994692;28;20341;-78
2022/02/26 03:16:09;;;;;;;3.83;1.80;;;0.90;99.90;;;;;;4994827;28;20294;-78
2022/02/26 03:18:35;;;;;;;7.77;2.73;;;0.90;99.90;;;;;;4994397;28;20195;-78
2022/02/26 03:21:02;;;;;;;8.90;2.20;;;0.90;99.90;;;;;;4994715;28;20206;-79
2022/02/26 03:23:29;;;;;;;9.53;2.70;;;0.90;99.90;;;;;;4994823;28;20341;-79
2022/02/26 03:25:56;;;;;;;5.03;2.07;;;0.90;99.90;;;;;;4995006;28;20202;-79
2022/02/26 03:28:23;;;;;;;7.77;1.80;;;1.00;99.90;;;;;;4994700;28;20213;-79
2022/02/26 03:30:51;;;;;;;8.40;2.47;;;0.90;99.90;;;;;;4995203;28;20210;-80
2022/02/26 03:33:18;;;;;;;13.27;2.67;;;0.90;99.90;;;;;;4994835;28;20341;-79
2022/02/26 03:35:44;;;;;;;5.33;2.23;;;0.80;99.90;;;;;;4993692;28;20214;-79
2022/02/26 03:38:11;;;;;;;6.60;2.07;;;0.80;99.90;;;;;;4994382;28;20569;-80
2022/02/26 03:40:39;;;;;;;7.90;2.23;;;0.70;99.90;;;;;;4994215;28;20206;-79
2022/02/26 03:43:06;;;;;;;5.40;2.23;;;0.80;99.90;;;;;;4993541;28;20249;-79
2022/02/26 03:45:32;;;;;;;5.77;2.37;;;0.80;99.90;;;;;;4992821;28;20695;-80
2022/02/26 03:48:01;;;;;;;6.87;2.73;;;0.90;99.90;;;;;;4994045;28;20208;-79
2022/02/26 03:50:28;;;;;;;4.13;1.80;;;1.00;99.90;;;;;;4994409;28;20206;-80
2022/02/26 03:52:55;;;;;;;9.40;2.40;;;1.00;99.90;;;;;;4994060;28;20227;-79
2022/02/26 03:55:21;;;;;;;8.20;1.97;;;0.80;99.90;;;;;;4994487;28;20226;-80
2022/02/26 03:57:48;;;;;;;7.73;2.17;;;0.70;99.90;;;;;;4994120;28;20208;-80
2022/02/26 04:00:16;;;;;;;6.03;2.00;;;0.60;99.90;;;;;;4994033;28;20198;-80
2022/02/26 04:02:43;;;;;;;2.93;1.53;;;0.70;99.90;;;;;;4993995;28;20238;-80
2022/02/26 04:05:11;;;;;;;6.40;2.17;;;0.70;99.90;;;;;;4994245;28;20661;-79
2022/02/26 04:07:40;;;;;;;6.13;2.37;;;0.70;99.90;;;;;;4994039;28;20214;-80
2022/02/26 04:10:08;;;;;;;11.27;3.07;;;0.70;99.90;;;;;;4993948;28;20206;-80
2022/02/26 04:12:34;;;;;;;3.03;1.70;;;0.70;99.90;;;;;;4994055;28;20241;-80
2022/02/26 04:15:01;;;;;;;8.30;2.53;;;0.80;99.90;;;;;;4994225;28;20206;-79
2022/02/26 04:17:28;;;;;;;6.77;1.97;;;0.80;99.90;;;;;;4993930;28;20206;-76
2022/02/26 04:19:55;;;;;;;5.03;1.50;;;0.70;99.90;;;;;;4994128;28;20215;-80
2022/02/26 04:22:23;;;;;;;7.00;2.20;;;0.60;99.90;;;;;;4993965;28;20230;-79
2022/02/26 04:24:50;;;;;;;6.67;2.10;;;0.50;99.90;;;;;;4993733;28;20214;-79
2022/02/26 04:27:17;;;;;;;4.97;2.00;;;0.50;99.90;;;;;;4994066;28;20206;-80
2022/02/26 04:29:44;;;;;;;3.33;2.10;;;0.70;99.90;;;;;;4993917;28;20203;-78
2022/02/26 04:32:11;;;;;;;5.37;1.73;;;0.70;99.90;;;;;;4993435;28;20686;-78
2022/02/26 04:34:38;;;;;;;5.77;2.07;;;0.70;99.90;;;;;;4993695;28;20301;-79
2022/02/26 04:37:05;;;;;;;5.70;2.00;;;0.70;99.90;;;;;;4993198;28;20221;-80
2022/02/26 04:39:33;;;;;;;9.50;2.60;;;0.70;99.90;;;;;;4993725;28;20547;-79
2022/02/26 04:42:00;;;;;;;7.53;1.77;;;0.70;99.90;;;;;;4993212;28;20546;-77
2022/02/26 04:44:27;;;;;;;8.93;1.90;;;0.70;99.90;;;;;;4993506;28;20213;-80
2022/02/26 04:46:54;;;;;;;5.73;1.90;;;0.70;99.90;;;;;;4993592;28;20618;-79
2022/02/26 04:49:20;;;;;;;6.90;2.47;;;0.70;99.90;;;;;;4993672;28;20206;-80
2022/02/26 04:51:47;;;;;;;3.77;1.53;;;0.50;99.90;;;;;;4993152;28;20673;-78
2022/02/26 04:54:14;;;;;;;7.23;1.80;;;0.50;99.90;;;;;;4993783;28;20202;-77
2022/02/26 04:56:42;;;;;;;12.37;2.30;;;0.60;99.90;;;;;;4993717;28;20213;-79
2022/02/26 04:59:09;;;;;;;9.87;1.83;;;0.70;99.90;;;;;;4992983;28;20205;-80
2022/02/26 05:01:36;;;;;;;5.30;2.13;;;0.60;99.90;;;;;;4992991;28;20210;-80
2022/02/26 05:04:02;;;;;;;10.80;1.97;;;0.60;99.90;;;;;;4993317;28;20712;-79
2022/02/26 05:06:29;;;;;;;4.30;1.63;;;0.60;99.90;;;;;;4992950;28;20213;-79
2022/02/26 05:08:56;;;;;;;5.77;1.57;;;0.50;99.90;;;;;;4993428;28;20206;-78
2022/02/26 05:11:23;;;;;;;5.27;1.83;;;0.50;99.90;;;;;;4993562;28;20203;-80
2022/02/26 05:13:51;;;;;;;9.63;1.77;;;0.50;99.90;;;;;;4993231;28;20593;-80
2022/02/26 05:16:18;;;;;;;3.20;1.73;;;0.40;99.90;;;;;;4993304;28;20206;-80
2022/02/26 05:18:44;;;;;;;7.57;1.80;;;0.50;99.90;;;;;;4993171;28;20202;-79
2022/02/26 05:21:11;;;;;;;4.03;1.77;;;0.60;99.90;;;;;;4992387;28;20695;-80
2022/02/26 05:23:41;;;;;;;7.93;1.63;;;0.60;99.90;;;;;;4993060;28;20581;-81
2022/02/26 05:26:09;;;;;;;6.60;1.97;;;0.60;99.90;;;;;;4993101;28;20217;-80
2022/02/26 05:28:35;;;;;;;4.03;1.70;;;0.50;99.90;;;;;;4993205;28;20207;-80
2022/02/26 05:31:04;;;;;;;3.70;1.83;;;0.50;99.90;;;;;;4995738;28;20217;-79
2022/02/26 05:33:31;;;;;;;7.03;2.07;;;0.60;99.90;;;;;;4997559;28;20570;-80
2022/02/26 05:35:57;;;;;;;6.50;2.07;;;0.60;99.90;;;;;;4996660;28;20700;-80
2022/02/26 05:38:24;;;;;;;6.63;1.60;;;0.40;99.90;;;;;;4996672;28;20214;-80
2022/02/26 05:40:51;;;;;;;11.53;2.03;;;0.40;99.90;;;;;;4997010;28;20214;-79
2022/02/26 05:43:18;;;;;;;4.47;1.90;;;0.40;99.90;;;;;;4996661;28;20238;-80
2022/02/26 05:45:45;;;;;;;4.23;1.73;;;0.50;99.90;;;;;;4996566;28;20202;-79
2022/02/26 05:48:13;;;;;;;6.63;1.40;;;0.60;99.90;;;;;;4996610;28;20217;-79
2022/02/26 05:50:40;;;;;;;4.77;1.93;;;0.50;99.90;;;;;;4996491;28;20657;-80
2022/02/26 05:53:07;;;;;;;7.73;2.33;;;0.60;99.90;;;;;;4996144;28;20229;-80
2022/02/26 05:55:34;;;;;;;7.37;1.90;;;0.60;99.90;;;;;;4996636;28;20203;-79
2022/02/26 05:58:00;;;;;;;7.20;1.77;;;0.50;99.90;;;;;;4996556;28;20206;-80
2022/02/26 06:00:27;;;;;;;4.37;1.70;;;0.60;99.90;;;;;;4996312;28;20206;-79
2022/02/26 06:02:54;;;;;;;2.63;1.33;;;0.60;99.90;;;;;;4996169;28;20234;-79
2022/02/26 06:05:23;;;;;;;4.00;1.57;;;0.60;99.90;;;;;;4996255;28;20206;-79
2022/02/26 06:07:50;;;;;;;3.27;1.97;;;0.60;99.90;;;;;;4995312;28;20199;-79
2022/02/26 06:10:16;;;;;;;4.17;1.33;;;0.70;99.90;;;;;;4996082;28;20220;-79
2022/02/26 06:12:43;;;;;;;3.93;1.40;;;0.70;99.90;;;;;;4995638;28;20316;-78
2022/02/26 06:15:11;;;;;;;2.97;1.27;;;0.70;99.90;;;;;;4996062;28;20676;-78
2022/02/26 06:17:37;;;;;;;2.73;1.40;;;0.70;99.90;;;;;;4996065;28;20251;-78
2022/02/26 06:20:05;;;;;;;5.10;1.87;;;0.70;99.90;;;;;;4996209;28;20210;-79
2022/02/26 06:22:33;;;;;;;8.63;2.13;;;0.60;99.90;;;;;;4995963;28;20640;-79
2022/02/26 06:25:00;;;;;;;4.67;1.57;;;0.70;99.90;;;;;;4996074;28;20572;-79
2022/02/26 06:27:27;;;;;;;8.83;1.80;;;0.60;99.90;;;;;;4995906;28;20210;-80
2022/02/26 06:29:54;;;;;;;9.93;2.43;;;0.60;99.90;;;;;;4996192;28;20209;-80
2022/02/26 06:32:21;;;;;;;5.10;1.60;;;0.60;99.90;;;;;;4995405;28;20719;-79
2022/02/26 06:34:48;;;;;;;6.57;2.33;;;0.60;99.90;;;;;;4995513;28;20211;-79
2022/02/26 06:37:15;;;;;;;9.17;1.93;;;0.60;99.90;;;;;;4995435;28;20265;-80
2022/02/26 06:39:43;;;;;;;3.63;1.23;;;0.60;99.90;;;;;;4995241;28;20203;-80
2022/02/26 06:42:09;;;;;;;6.80;1.97;;;0.60;99.90;;;;;;4995443;28;20230;-79
2022/02/26 06:44:36;;;;;;;7.20;1.90;;;0.70;99.90;;;;;;4995049;28;20244;-79
2022/02/26 06:47:03;;;;;;;5.20;1.73;;;0.70;99.90;;;;;;4995516;28;20218;-79
2022/02/26 06:49:30;;;;;;;4.17;1.57;;;0.80;99.90;;;;;;4995601;28;20206;-80
2022/02/26 06:51:57;;;;;;;2.27;1.30;;;0.80;99.90;;;;;;4995314;28;20206;-79
2022/02/26 06:54:24;;;;;;;4.27;1.67;;;1.00;99.90;;;;;;4995368;28;20211;-80
2022/02/26 06:56:52;;;;;;;6.83;2.03;;;1.00;99.90;;;;;;4995265;28;20206;-80
2022/02/26 06:59:19;;;;;;;2.87;1.23;;;1.00;99.90;;;;;;4995436;28;20206;-80
2022/02/26 07:01:46;;;;;;;4.80;1.90;;;1.10;99.90;;;;;;4994721;28;20205;-80
2022/02/26 07:04:13;;;;;;;3.50;1.57;;;1.00;99.90;;;;;;4994211;28;20245;-79
2022/02/26 07:06:43;;;;;;;9.73;1.50;;;1.10;99.90;;;;;;4994585;28;20212;-79
2022/02/26 07:09:10;;;;;;;11.00;2.13;;;1.20;99.90;;;;;;4994841;28;20700;-81
2022/02/26 07:11:37;;;;;;;7.13;2.30;;;1.40;99.90;;;;;;4994794;28;20202;-79
2022/02/26 07:14:05;;;;;;;11.03;2.13;;;1.60;99.90;;;;;;4994678;28;20231;-78
2022/02/26 07:16:33;;;;;;;9.87;2.43;;;2.00;99.90;;;;;;4994730;28;20557;-78
2022/02/26 07:19:00;;;;;;;8.20;2.20;;;2.70;99.90;;;;;;4994741;28;20194;-80
2022/02/26 07:21:27;;;;;;;7.00;2.17;;;3.30;99.90;;;;;;4994150;28;20203;-80
2022/02/26 07:23:56;;;;;;;6.97;1.70;;;3.90;99.90;;;;;;4994342;28;20238;-79
2022/02/26 07:26:23;;;;;;;9.70;2.07;;;4.50;99.90;;;;;;4994646;28;20207;-79
2022/02/26 07:28:49;;;;;;;7.47;2.13;;;5.20;99.90;;;;;;4995104;28;20297;-80
2022/02/26 07:31:18;;;;;;;5.77;1.50;;;5.90;99.90;;;;;;4994136;28;20232;-79
2022/02/26 07:33:44;;;;;;;3.33;1.20;;;6.30;99.90;;;;;;4993517;28;20618;-77
2022/02/26 07:36:12;;;;;;;2.60;1.03;;;6.80;99.90;;;;;;4993212;28;20218;-80
2022/02/26 07:38:39;;;;;;;6.07;1.40;;;7.40;99.90;;;;;;4993248;28;20238;-81
2022/02/26 07:41:07;;;;;;;6.37;1.40;;;7.80;99.90;;;;;;4994431;28;20280;-78
2022/02/26 07:43:34;;;;;;;7.97;1.67;;;8.40;99.90;;;;;;4994429;28;20669;-77
2022/02/26 07:46:01;;;;;;;4.03;1.30;;;8.80;99.90;;;;;;4994300;28;20210;-77
2022/02/26 07:48:29;;;;;;;2.70;1.30;;;9.00;99.90;;;;;;4994513;28;20211;-78
2022/02/26 07:50:56;;;;;;;5.57;1.37;;;9.40;99.90;;;;;;4994411;28;20206;-78
2022/02/26 07:53:23;;;;;;;4.47;1.30;;;9.70;99.90;;;;;;4994090;28;20264;-78
2022/02/26 07:55:50;;;;;;;7.80;1.30;;;9.90;99.90;;;;;;4994282;28;20210;-81
2022/02/26 07:58:17;;;;;;;3.30;1.20;;;10.30;99.90;;;;;;4994176;28;20662;-78
2022/02/26 08:00:44;;;;;;;2.63;1.20;;;10.50;99.90;;;;;;4994125;28;20198;-75
2022/02/26 08:03:10;;;;;;;6.03;1.50;;;11.00;99.90;;;;;;4993818;28;20321;-80
2022/02/26 08:05:39;;;;;;;6.17;1.80;;;11.50;99.90;;;;;;4994006;28;20609;-80
2022/02/26 08:08:06;;;;;;;7.40;1.30;;;11.60;99.90;;;;;;4993579;28;20206;-80
2022/02/26 08:10:33;;;;;;;7.03;2.20;;;11.60;99.90;;;;;;4994081;28;20217;-77
2022/02/26 08:13:00;;;;;;;4.83;1.33;;;11.70;99.90;;;;;;4993890;28;20229;-78
2022/02/26 08:15:28;;;;;;;4.83;1.43;;;11.80;99.90;;;;;;4993965;28;20233;-78
2022/02/26 08:17:55;;;;;;;5.33;1.57;;;11.50;99.90;;;;;;4993823;28;20289;-78
2022/02/26 08:20:24;;;;;;;5.17;1.40;;;11.50;99.90;;;;;;4994328;28;20207;-77
2022/02/26 08:22:53;;;;;;;3.03;1.33;;;11.80;99.90;;;;;;4993536;28;20633;-78
2022/02/26 08:25:21;;;;;;;6.03;1.70;;;12.10;99.90;;;;;;4993141;28;20213;-80
2022/02/26 08:27:48;;;;;;;6.13;1.67;;;12.00;99.90;;;;;;4993308;28;20225;-78
2022/02/26 08:30:19;;;;;;;8.40;2.10;;;11.90;99.90;;;;;;4993964;28;20211;-80
2022/02/26 08:32:46;;;;;;;3.50;1.87;;;12.20;99.90;;;;;;4993816;28;20242;-79
2022/02/26 08:35:14;;;;;;;4.70;1.93;;;11.90;99.90;;;;;;4993682;28;20222;-78
2022/02/26 08:37:42;;;;;;;5.80;2.30;;;11.50;99.90;;;;;;4993126;28;20559;-78
2022/02/26 08:40:12;;;;;;;10.67;2.10;;;9.90;99.90;;;;;;4992611;28;20207;-75
2022/02/26 08:42:39;;;;;;;8.73;2.03;;;8.80;99.90;;;;;;4992860;28;20692;-75
2022/02/26 08:45:07;;;;;;;10.97;2.03;;;8.40;99.90;;;;;;4993206;28;20719;-77
2022/02/26 08:47:35;;;;;;;4.67;2.20;;;8.90;99.90;;;;;;4993675;28;20220;-77
2022/02/26 08:50:05;;;;;;;5.97;2.83;;;9.20;99.90;;;;;;4993618;28;20210;-76
2022/02/26 08:52:32;;;;;;;10.00;2.93;;;9.30;99.90;;;;;;4993209;28;20228;-79
2022/02/26 08:54:58;;;;;;;6.20;3.30;;;9.70;99.90;;;;;;4993607;28;20214;-77
2022/02/26 08:57:27;;;;;;;8.87;3.00;;;9.40;99.90;;;;;;4993255;28;20202;-76
2022/02/26 08:59:53;;;;;;;9.50;3.23;;;9.20;99.90;;;;;;4993599;28;20203;-79
2022/02/26 09:02:20;;;;;;;12.63;3.77;;;9.00;99.90;;;;;;4992757;28;20218;-79
2022/02/26 09:04:47;;;;;;;8.17;3.10;;;8.90;99.90;;;;;;4993211;28;20234;-77
2022/02/26 09:07:14;;;;;;;14.03;3.57;;;8.60;99.90;;;;;;4996061;28;20206;-79
2022/02/26 09:09:41;;;;;;;14.30;3.40;;;8.40;99.90;;;;;;4987314;28;20203;-79
2022/02/26 09:12:08;;;;;;;7.33;2.93;;;8.20;99.90;;;;;;4983660;28;20224;-80
2022/02/26 09:14:37;;;;;;;8.43;3.50;;;8.20;99.90;;;;;;4985174;28;20202;-76
2022/02/26 09:17:04;;;;;;;11.17;3.67;;;8.00;99.90;;;;;;4987189;28;20289;-78
2022/02/26 09:19:31;;;;;;;8.37;2.97;;;7.80;99.90;;;;;;4985684;28;20214;-79
2022/02/26 09:21:58;;;;;;;5.77;2.33;;;7.60;99.90;;;;;;4982215;28;20295;-79
2022/02/26 09:24:25;;;;;;;7.93;3.23;;;7.50;99.90;;;;;;4977315;28;20721;-80
2022/02/26 09:26:52;;;;;;;8.43;3.13;;;7.40;99.90;;;;;;4990879;28;20202;-79
2022/02/26 09:29:19;;;;;;;14.10;3.83;;;7.00;99.90;;;;;;4996908;28;20213;-79
2022/02/26 09:31:50;;;;;;;12.10;3.50;;;6.90;99.90;;;;;;4985274;28;20195;-79
2022/02/26 09:34:17;;;;;;;9.20;2.87;;;6.70;99.90;;;;;;4977475;28;20211;-78
2022/02/26 09:36:45;;;;;;;11.00;3.40;;;6.30;99.90;;;;;;4989827;28;20218;-79
2022/02/26 09:39:12;;;;;;;8.60;3.43;;;6.20;99.90;;;;;;5002237;28;20198;-78
2022/02/26 09:41:39;;;;;;;11.63;3.40;;;6.10;99.90;;;;;;5016080;28;20209;-78
2022/02/26 09:44:07;;;;;;;10.97;3.03;;;6.10;99.90;;;;;;4999786;28;20233;-77
2022/02/26 09:46:34;;;;;;;5.97;2.77;;;6.20;99.90;;;;;;4996348;28;20194;-79
2022/02/26 09:49:03;;;;;;;10.37;3.43;;;6.10;99.90;;;;;;4996597;28;20213;-78
2022/02/26 09:51:31;;;;;;;6.93;2.73;;;6.20;99.90;;;;;;5006975;28;20207;-78
2022/02/26 09:53:59;;;;;;;10.47;3.37;;;6.30;99.90;;;;;;4985716;28;20250;-78
2022/02/26 09:56:26;;;;;;;7.93;3.03;;;6.10;99.90;;;;;;4987768;28;20211;-78
2022/02/26 09:58:53;;;;;;;8.60;3.10;;;6.10;99.90;;;;;;4981322;28;20225;-78
2022/02/26 10:01:20;;;;;;;6.57;3.40;;;6.00;99.90;;;;;;4984396;28;20209;-79
2022/02/26 10:03:47;;;;;;;20.00;4.17;;;6.30;99.90;;;;;;4980884;28;20241;-78
2022/02/26 10:06:18;;;;;;;8.17;3.10;;;6.50;99.90;;;;;;4976603;28;20212;-78
2022/02/26 10:08:46;;;;;;;12.17;3.50;;;6.50;99.90;;;;;;4979352;28;20647;-79
2022/02/26 10:11:26;;;;;;;12.80;3.30;;;6.40;99.90;;;;;;4986579;28;20206;-78
2022/02/26 10:14:02;;;;;;;11.63;2.90;;;6.10;99.90;;;;;;4985448;28;20254;-78
2022/02/26 10:16:45;;;;;;;7.10;2.87;;;6.00;99.90;;;;;;4980270;28;20199;-78
2022/02/26 10:19:12;;;;;;;7.47;3.03;;;6.10;99.90;;;;;;4982579;28;20199;-78
2022/02/26 10:21:43;;;;;;;7.83;3.30;;;6.10;99.90;;;;;;4984786;28;20199;-79
2022/02/26 10:24:13;;;;;;;11.50;3.17;;;5.90;99.90;;;;;;4984447;28;20234;-80
2022/02/26 10:26:40;;;;;;;7.97;3.57;;;6.10;99.90;;;;;;4980046;28;20670;-80
2022/02/26 10:29:09;;;;;;;7.60;2.60;;;6.30;99.90;;;;;;4985722;28;20290;-80
2022/02/26 10:31:46;;;;;;;8.37;2.70;;;6.50;99.90;;;;;;4990186;28;20649;-79
2022/02/26 10:34:31;;;;;;;13.53;2.93;;;6.50;99.90;;;;;;4981333;28;20215;-77
2022/02/26 10:37:03;;;;;;;11.10;2.53;;;6.70;99.90;;;;;;4990279;28;20811;-85
2022/02/26 10:39:32;;;;;;;5.73;2.30;;;6.60;99.90;;;;;;4990074;28;20202;-87
2022/02/26 10:41:59;;;;;;;8.30;2.50;;;6.30;99.90;;;;;;4992417;28;20213;-87
2022/02/26 10:44:26;;;;;;;7.93;2.17;;;6.30;99.90;;;;;;4995598;28;20237;-80
2022/02/26 10:46:53;;;;;;;11.60;3.00;;;6.40;99.90;;;;;;4995786;28;20301;-83
2022/02/26 10:49:20;;;;;;;5.13;1.73;;;6.60;99.90;;;;;;4995214;28;20209;-84
2022/02/26 10:51:49;;;;;;;7.57;2.83;;;6.50;99.90;;;;;;4985325;28;20207;-82
2022/02/26 10:54:24;;;;;;;10.10;2.77;;;6.50;99.90;;;;;;4977902;28;20578;-85
2022/02/26 10:56:52;;;;;;;3.17;1.53;;;6.60;99.90;;;;;;4995375;28;20203;-87
2022/02/26 10:59:30;;;;;;;8.53;2.23;;;6.70;99.90;;;;;;4995793;28;20206;-84
2022/02/26 11:02:04;;;;;;;6.03;1.77;;;6.50;99.90;;;;;;4995714;28;20237;-87
2022/02/26 11:04:31;;;;;;;5.30;1.63;;;6.60;99.90;;;;;;4996392;28;20230;-88
2022/02/26 11:06:58;;;;;;;5.00;1.17;;;6.60;99.90;;;;;;4995921;28;20209;-88
2022/02/26 11:09:27;;;;;;;4.83;1.60;;;6.60;99.90;;;;;;4997696;28;20206;-79
2022/02/26 11:11:57;;;;;;;6.10;1.17;;;6.60;99.90;;;;;;4994862;28;20565;-78
2022/02/26 11:14:26;;;;;;;7.70;1.63;;;6.60;99.90;;;;;;4994384;28;20213;-77
2022/02/26 11:16:56;;;;;;;6.50;1.33;;;6.70;99.90;;;;;;4994798;28;20218;-77
2022/02/26 11:19:26;;;;;;;5.27;0.97;;;6.80;99.90;;;;;;4995237;28;20217;-78
2022/02/26 11:21:54;;;;;;;5.87;0.97;;;6.80;99.90;;;;;;4988722;28;20210;-77
2022/02/26 11:24:20;;;;;;;2.87;1.13;;;7.00;99.90;;;;;;4985065;28;20222;-77
2022/02/26 11:26:49;;;;;;;4.97;0.87;;;7.10;99.90;;;;;;4986398;28;20281;-77
2022/02/26 11:29:18;;;;;;;6.57;1.10;;;7.20;99.90;;;;;;4983945;28;20283;-77
2022/02/26 11:31:47;;;;;;;7.73;1.47;;;7.10;99.90;;;;;;4985800;28;20207;-87
2022/02/26 11:34:22;;;;;;;6.50;1.40;;;7.10;99.90;;;;;;4994232;28;20211;-87
2022/02/26 11:36:51;;;;;;;4.20;0.97;;;7.00;99.90;;;;;;4999780;28;20313;-86
2022/02/26 11:39:33;;;;;;;9.23;1.67;;;7.00;99.90;;;;;;4994237;28;20271;-87
2022/02/26 11:42:38;;;;;;;8.63;1.20;;;7.10;99.90;;;;;;4989357;28;20210;-88
2022/02/26 11:45:07;;;;;;;1.80;1.00;;;7.30;99.90;;;;;;5009541;28;20233;-86
2022/02/26 11:47:40;;;;;;;3.67;1.17;;;7.50;99.90;;;;;;4994825;28;20271;-87
2022/02/26 11:50:09;;;;;;;8.77;1.53;;;7.70;99.90;;;;;;4995340;28;20274;-79
2022/02/26 11:52:48;;;;;;;6.50;1.40;;;7.60;99.90;;;;;;4997616;28;20286;-85
2022/02/26 11:55:33;;;;;;;5.30;1.77;;;7.70;99.90;;;;;;4996807;28;20560;-88
2022/02/26 11:58:04;;;;;;;7.87;1.60;;;7.70;99.90;;;;;;5007304;28;20210;-87
2022/02/26 12:00:33;;;;;;;7.17;1.70;;;7.80;99.90;;;;;;5001529;28;20214;-85
2022/02/26 12:03:25;;;;;;;2.47;1.60;;;7.70;99.90;;;;;;5006298;28;20248;-86
2022/02/26 12:05:55;;;;;;;4.03;1.70;;;7.70;99.90;;;;;;4993429;28;20234;-87
2022/02/26 12:08:36;;;;;;;4.30;1.40;;;7.50;99.90;;;;;;4996345;28;20202;-84
2022/02/26 12:11:06;;;;;;;6.13;1.43;;;7.70;99.90;;;;;;4995768;28;20272;-81
2022/02/26 12:13:36;;;;;;;10.63;2.07;;;7.90;99.90;;;;;;4989893;28;20230;-84
2022/02/26 12:16:25;;;;;;;3.97;1.30;;;7.90;99.90;;;;;;4991619;28;20222;-81
2022/02/26 12:18:58;;;;;;;5.77;1.70;;;8.00;99.90;;;;;;4999312;28;20202;-84
2022/02/26 12:21:31;;;;;;;6.03;1.67;;;8.00;99.90;;;;;;4994311;28;20246;-81
2022/02/26 12:24:07;;;;;;;4.17;1.40;;;7.90;99.90;;;;;;4997688;28;20269;-77
2022/02/26 12:26:48;;;;;;;4.57;1.53;;;7.90;99.90;;;;;;4998481;28;20214;-77
2022/02/26 12:29:38;;;;;;;5.70;1.40;;;7.70;99.90;;;;;;4978884;28;20207;-83
2022/02/26 12:32:08;;;;;;;3.13;1.07;;;7.70;99.90;;;;;;4990449;28;20207;-79
2022/02/26 12:34:39;;;;;;;7.43;1.20;;;7.50;99.90;;;;;;4996945;28;20230;-77
2022/02/26 12:37:11;;;;;;;7.87;1.20;;;7.50;99.90;;;;;;4997820;28;20569;-83
2022/02/26 12:39:39;;;;;;;5.13;1.27;;;7.70;99.90;;;;;;4986076;28;20250;-75
2022/02/26 12:42:06;;;;;;;1.70;0.90;;;7.80;99.90;;;;;;4985684;28;20218;-72
2022/02/26 12:44:37;;;;;;;1.77;0.77;;;7.70;99.90;;;;;;4993174;28;20219;-70
2022/02/26 12:47:04;;;;;;;2.40;1.00;;;7.80;99.90;;;;;;4980913;28;20231;-70
2022/02/26 12:49:33;;;;;;;3.27;0.80;;;7.70;99.90;;;;;;4976193;28;20731;-70
2022/02/26 12:52:00;;;;;;;4.37;0.77;;;7.60;99.90;;;;;;4986349;28;20203;-70
2022/02/26 12:54:31;;;;;;;5.47;1.40;;;7.60;99.90;;;;;;4977315;28;20662;-71
2022/02/26 12:56:58;;;;;;;3.63;0.60;;;7.70;99.90;;;;;;4988162;28;20229;-73
2022/02/26 12:59:27;;;;;;;1.60;0.50;;;7.70;99.90;;;;;;4976668;28;20210;-73
2022/02/26 13:01:56;;;;;;;2.83;0.60;;;7.90;99.90;;;;;;4977435;28;20202;-72
2022/02/26 13:04:25;;;;;;;3.27;0.70;;;8.20;99.90;;;;;;4992654;28;20210;-73